createdAt,value
2019-05-21T00:00:44.747Z,12.30
2019-05-21T00:03:14.847Z,12.30
2019-05-21T00:05:45.019Z,12.20
2019-05-21T00:08:16.050Z,12.30
2019-05-21T00:10:46.155Z,12.30
2019-05-21T00:13:23.168Z,12.20
2019-05-21T00:15:53.315Z,12.30
2019-05-21T00:18:26.478Z,12.30
2019-05-21T00:20:56.582Z,12.20
2019-05-21T00:23:26.674Z,12.30
2019-05-21T00:25:59.799Z,12.30
2019-05-21T00:28:38.011Z,12.30
2019-05-21T00:32:06.243Z,12.30
2019-05-21T00:35:32.467Z,12.30
2019-05-21T00:38:58.167Z,12.30
2019-05-21T00:42:01.501Z,12.20
2019-05-21T00:44:43.595Z,12.20
2019-05-21T00:47:14.843Z,12.20
2019-05-21T00:49:45.951Z,12.20
2019-05-21T00:52:16.092Z,12.20
2019-05-21T00:54:46.178Z,12.20
2019-05-21T00:57:16.314Z,12.20
2019-05-21T00:59:48.596Z,12.20
2019-05-21T01:02:21.742Z,12.20
2019-05-21T01:05:00.581Z,12.20
2019-05-21T01:07:26.475Z,12.20
2019-05-21T01:09:58.823Z,12.20
2019-05-21T01:12:28.902Z,12.20
2019-05-21T01:14:58.997Z,12.20
2019-05-21T01:17:35.895Z,12.20
2019-05-21T01:20:07.231Z,12.30
2019-05-21T01:22:37.323Z,12.30
2019-05-21T01:25:19.583Z,12.30
2019-05-21T01:27:50.771Z,12.30
2019-05-21T01:30:20.872Z,12.30
2019-05-21T01:32:51.035Z,12.30
2019-05-21T01:35:21.150Z,12.30
2019-05-21T01:37:51.283Z,12.30
2019-05-21T01:40:23.318Z,12.20
2019-05-21T01:42:54.382Z,12.20
2019-05-21T01:45:24.473Z,12.20
2019-05-21T01:47:54.566Z,12.20
2019-05-21T01:50:31.574Z,12.20
2019-05-21T01:53:01.711Z,12.20
2019-05-21T01:55:32.715Z,12.20
2019-05-21T01:58:03.768Z,12.20
2019-05-21T02:00:33.859Z,12.20
2019-05-21T02:03:04.943Z,12.20
2019-05-21T02:05:36.059Z,12.20
2019-05-21T02:08:12.208Z,12.20
2019-05-21T02:10:42.319Z,12.20
2019-05-21T02:13:13.390Z,12.20
2019-05-21T02:15:44.424Z,12.10
2019-05-21T02:18:14.590Z,12.20
2019-05-21T02:20:44.643Z,12.20
2019-05-21T02:23:15.320Z,12.10
2019-05-21T02:25:52.240Z,12.10
2019-05-21T02:28:25.388Z,12.10
2019-05-21T02:31:01.524Z,12.10
2019-05-21T02:33:32.615Z,12.10
2019-05-21T02:36:22.249Z,12.10
2019-05-21T02:38:55.468Z,12.00
2019-05-21T02:41:41.451Z,12.00
2019-05-21T02:44:14.515Z,12.00
2019-05-21T02:46:44.598Z,12.00
2019-05-21T02:49:14.708Z,11.90
2019-05-21T02:51:45.795Z,11.90
2019-05-21T02:54:15.879Z,11.90
2019-05-21T02:56:45.980Z,11.90
2019-05-21T02:59:22.082Z,12.00
2019-05-21T03:02:12.569Z,12.00
2019-05-21T03:04:47.317Z,12.00
2019-05-21T03:07:18.376Z,11.90
2019-05-21T03:09:50.384Z,11.90
2019-05-21T03:12:20.966Z,11.90
2019-05-21T03:14:51.988Z,11.90
2019-05-21T03:17:23.025Z,11.90
2019-05-21T03:19:58.472Z,11.90
2019-05-21T03:22:30.540Z,11.90
2019-05-21T03:25:02.297Z,11.90
2019-05-21T03:27:41.434Z,11.90
2019-05-21T03:30:15.208Z,11.90
2019-05-21T03:32:45.317Z,11.90
2019-05-21T03:35:22.137Z,11.80
2019-05-21T03:37:55.891Z,11.80
2019-05-21T03:40:26.864Z,11.80
2019-05-21T03:42:57.042Z,11.70
2019-05-21T03:45:28.136Z,11.80
2019-05-21T03:48:13.324Z,11.70
2019-05-21T03:50:43.440Z,11.70
2019-05-21T03:53:16.551Z,11.70
2019-05-21T03:55:46.663Z,11.60
2019-05-21T03:58:16.756Z,11.60
2019-05-21T04:00:48.821Z,11.60
2019-05-21T04:03:31.037Z,11.60
2019-05-21T04:06:01.136Z,11.60
2019-05-21T04:08:31.216Z,11.50
2019-05-21T04:11:03.320Z,11.50
2019-05-21T04:13:35.621Z,11.50
2019-05-21T04:16:07.356Z,11.50
2019-05-21T04:18:42.283Z,11.50
2019-05-21T04:21:18.364Z,11.50
2019-05-21T04:23:48.484Z,11.50
2019-05-21T04:26:18.573Z,11.50
2019-05-21T04:28:48.679Z,11.40
2019-05-21T04:31:21.632Z,11.50
2019-05-21T04:33:59.491Z,11.50
2019-05-21T04:36:29.600Z,11.50
2019-05-21T04:39:00.652Z,11.40
2019-05-21T04:41:30.756Z,11.50
2019-05-21T04:44:00.875Z,11.50
2019-05-21T04:46:34.104Z,11.40
2019-05-21T04:49:04.465Z,11.40
2019-05-21T04:51:34.585Z,11.40
2019-05-21T04:54:04.697Z,11.40
2019-05-21T04:56:35.762Z,11.40
2019-05-21T04:59:05.861Z,11.40
2019-05-21T05:01:45.224Z,11.40
2019-05-21T05:04:21.169Z,11.40
2019-05-21T05:06:50.366Z,11.40
2019-05-21T05:09:23.551Z,11.40
2019-05-21T05:11:53.632Z,11.40
2019-05-21T05:14:24.715Z,11.40
2019-05-21T05:17:06.928Z,11.40
2019-05-21T05:19:42.966Z,11.40
2019-05-21T05:22:18.842Z,11.40
2019-05-21T05:24:55.932Z,11.40
2019-05-21T05:27:31.908Z,11.40
2019-05-21T05:30:11.507Z,11.40
2019-05-21T05:32:43.645Z,11.40
2019-05-21T05:35:14.959Z,11.40
2019-05-21T05:37:48.591Z,11.40
2019-05-21T05:40:23.571Z,11.40
2019-05-21T05:42:53.702Z,11.40
2019-05-21T05:45:24.453Z,11.40
2019-05-21T05:48:00.764Z,11.40
2019-05-21T05:50:33.478Z,11.40
2019-05-21T05:53:12.599Z,11.40
2019-05-21T05:55:42.707Z,11.40
2019-05-21T05:58:20.602Z,11.40
2019-05-21T06:00:50.794Z,11.40
2019-05-21T06:03:33.188Z,11.40
2019-05-21T06:06:03.315Z,11.40
2019-05-21T06:08:33.400Z,11.40
2019-05-21T06:11:04.402Z,11.50
2019-05-21T06:13:41.449Z,11.40
2019-05-21T06:16:21.856Z,11.40
2019-05-21T06:18:59.875Z,11.40
2019-05-21T06:21:33.924Z,11.50
2019-05-21T06:24:03.980Z,11.50
2019-05-21T06:26:34.159Z,11.50
2019-05-21T06:29:18.282Z,11.50
2019-05-21T06:31:48.351Z,11.60
2019-05-21T06:34:19.536Z,11.60
2019-05-21T06:36:56.709Z,11.60
2019-05-21T06:39:30.797Z,11.60
2019-05-21T06:42:01.852Z,11.60
2019-05-21T06:44:32.901Z,11.60
2019-05-21T06:47:02.983Z,11.60
2019-05-21T06:49:33.078Z,11.70
2019-05-21T06:52:03.175Z,11.70
2019-05-21T06:54:33.284Z,11.60
2019-05-21T06:57:03.752Z,11.60
2019-05-21T06:59:33.834Z,11.60
2019-05-21T07:02:05.147Z,11.60
2019-05-21T07:04:38.263Z,11.60
2019-05-21T07:07:08.364Z,11.60
2019-05-21T07:09:38.435Z,11.60
2019-05-21T07:12:24.727Z,11.70
2019-05-21T07:14:54.797Z,11.70
2019-05-21T07:17:25.829Z,11.80
2019-05-21T07:19:56.894Z,11.80
2019-05-21T07:22:26.999Z,11.80
2019-05-21T07:25:07.113Z,11.80
2019-05-21T07:27:37.261Z,11.80
2019-05-21T07:30:08.884Z,11.80
2019-05-21T07:32:45.218Z,11.70
2019-05-21T07:35:15.604Z,11.70
2019-05-21T07:37:46.661Z,11.70
2019-05-21T07:40:36.114Z,11.70
2019-05-21T07:43:25.900Z,11.80
2019-05-21T07:45:58.219Z,11.80
2019-05-21T07:48:34.532Z,11.90
2019-05-21T07:51:04.712Z,11.90
2019-05-21T07:53:42.866Z,12.00
2019-05-21T07:56:12.960Z,12.00
2019-05-21T07:58:45.034Z,12.00
2019-05-21T08:01:16.096Z,12.10
2019-05-21T08:03:48.845Z,12.10
2019-05-21T08:06:19.912Z,12.00
2019-05-21T08:09:10.933Z,12.10
2019-05-21T08:11:31.417Z,12.10
2019-05-21T08:14:01.548Z,12.10
2019-05-21T08:16:31.662Z,12.20
2019-05-21T08:19:02.677Z,12.10
2019-05-21T08:21:32.832Z,12.10
2019-05-21T08:24:02.932Z,12.10
2019-05-21T08:26:35.071Z,12.20
2019-05-21T08:29:11.445Z,12.20
2019-05-21T08:31:47.424Z,12.10
2019-05-21T08:34:21.668Z,12.10
2019-05-21T08:36:52.387Z,12.10
2019-05-21T08:39:28.669Z,12.10
2019-05-21T08:41:55.251Z,12.10
2019-05-21T08:44:33.211Z,12.10
2019-05-21T08:47:10.650Z,12.10
2019-05-21T08:49:44.202Z,12.10
2019-05-21T08:52:13.778Z,12.00
2019-05-21T08:54:47.492Z,12.20
2019-05-21T08:57:17.628Z,12.20
2019-05-21T08:59:48.017Z,12.30
2019-05-21T09:02:19.153Z,12.40
2019-05-21T09:04:50.247Z,12.40
2019-05-21T09:07:28.501Z,12.50
2019-05-21T09:10:01.582Z,12.60
2019-05-21T09:12:31.663Z,12.60
2019-05-21T09:15:02.834Z,12.80
2019-05-21T09:17:32.916Z,12.90
2019-05-21T09:20:09.234Z,13.00
2019-05-21T09:22:44.701Z,13.10
2019-05-21T09:25:15.753Z,13.00
2019-05-21T09:27:45.893Z,12.90
2019-05-21T09:30:26.369Z,12.90
2019-05-21T09:33:02.448Z,12.90
2019-05-21T09:35:42.633Z,12.80
2019-05-21T09:38:12.730Z,12.80
2019-05-21T09:40:43.758Z,12.80
2019-05-21T09:43:14.818Z,12.80
2019-05-21T09:45:45.278Z,12.90
2019-05-21T09:48:16.972Z,12.90
2019-05-21T09:50:48.024Z,13.20
2019-05-21T09:53:24.221Z,13.30
2019-05-21T09:55:54.328Z,13.50
2019-05-21T09:58:26.068Z,13.60
2019-05-21T10:01:11.853Z,13.70
2019-05-21T10:03:43.734Z,14.00
2019-05-21T10:06:17.201Z,14.50
2019-05-21T10:08:53.065Z,14.60
2019-05-21T10:11:23.176Z,14.40
2019-05-21T10:13:53.496Z,14.40
2019-05-21T10:16:25.573Z,14.30
2019-05-21T10:18:56.612Z,14.20
2019-05-21T10:21:27.056Z,14.10
2019-05-21T10:23:58.072Z,14.30
2019-05-21T10:26:28.160Z,14.60
2019-05-21T10:28:58.268Z,14.60
2019-05-21T10:31:28.479Z,14.60
2019-05-21T10:33:58.792Z,14.90
2019-05-21T10:36:40.360Z,14.80
2019-05-21T10:39:11.960Z,14.60
2019-05-21T10:41:51.032Z,14.50
2019-05-21T10:44:22.144Z,14.60
2019-05-21T10:47:05.557Z,14.60
2019-05-21T10:49:35.650Z,14.70
2019-05-21T10:52:05.871Z,14.50
2019-05-21T10:54:36.908Z,14.70
2019-05-21T10:57:07.128Z,14.90
2019-05-21T10:59:37.280Z,15.00
2019-05-21T11:02:10.916Z,14.90
2019-05-21T11:04:46.486Z,14.70
2019-05-21T11:07:17.879Z,14.70
2019-05-21T11:09:47.983Z,14.60
2019-05-21T11:12:18.217Z,14.50
2019-05-21T11:14:48.301Z,14.60
2019-05-21T11:17:18.382Z,14.80
2019-05-21T11:19:48.527Z,14.70
2019-05-21T11:22:20.591Z,14.70
2019-05-21T11:24:50.654Z,14.70
2019-05-21T11:27:22.808Z,14.90
2019-05-21T11:30:09.513Z,14.80
2019-05-21T11:32:42.204Z,14.70
2019-05-21T11:35:12.604Z,14.70
2019-05-21T11:37:47.889Z,14.70
2019-05-21T11:40:21.974Z,14.70
2019-05-21T11:42:58.084Z,14.70
2019-05-21T11:45:32.615Z,14.70
2019-05-21T11:48:00.917Z,14.50
2019-05-21T11:50:32.045Z,14.40
2019-05-21T11:53:02.900Z,14.40
2019-05-21T11:55:34.948Z,14.50
2019-05-21T11:58:05.993Z,14.50
2019-05-21T12:00:41.205Z,14.50
2019-05-21T12:03:11.309Z,14.70
2019-05-21T12:05:41.559Z,14.80
2019-05-21T12:08:12.624Z,14.80
2019-05-21T12:10:42.704Z,14.80
2019-05-21T12:13:20.559Z,14.70
2019-05-21T12:15:50.308Z,14.60
2019-05-21T12:18:25.349Z,14.50
2019-05-21T12:20:55.434Z,14.30
2019-05-21T12:23:25.511Z,14.30
2019-05-21T12:25:55.601Z,14.30
2019-05-21T12:28:26.656Z,14.40
2019-05-21T12:31:02.527Z,14.60
2019-05-21T12:33:35.088Z,14.80
2019-05-21T12:36:13.284Z,14.80
2019-05-21T12:38:49.464Z,15.00
2019-05-21T12:41:30.532Z,15.10
2019-05-21T12:44:00.628Z,15.30
2019-05-21T12:46:32.693Z,15.50
2019-05-21T12:49:02.788Z,15.70
2019-05-21T12:51:35.892Z,15.90
2019-05-21T12:54:06.246Z,16.10
2019-05-21T12:56:40.458Z,16.20
2019-05-21T12:59:08.129Z,16.20
2019-05-21T13:01:46.224Z,16.10
2019-05-21T13:04:22.088Z,16.30
2019-05-21T13:06:52.188Z,16.70
2019-05-21T13:09:32.398Z,16.90
2019-05-21T13:11:54.084Z,17.20
2019-05-21T13:14:24.166Z,17.50
2019-05-21T13:16:54.245Z,17.60
2019-05-21T13:19:24.342Z,17.60
2019-05-21T13:21:54.797Z,17.60
2019-05-21T13:24:25.892Z,17.60
2019-05-21T13:27:05.874Z,17.50
2019-05-21T13:29:37.959Z,17.30
2019-05-21T13:32:08.064Z,17.30
2019-05-21T13:34:53.377Z,17.70
2019-05-21T13:37:30.669Z,18.20
2019-05-21T13:40:02.702Z,18.60
2019-05-21T13:42:34.761Z,18.50
2019-05-21T13:45:11.688Z,18.40
2019-05-21T13:47:41.836Z,17.70
2019-05-21T13:50:18.404Z,17.60
2019-05-21T13:52:48.498Z,17.40
2019-05-21T13:55:26.597Z,17.10
2019-05-21T13:57:56.673Z,16.70
2019-05-21T14:00:28.713Z,16.30
2019-05-21T14:02:58.809Z,15.80
2019-05-21T14:05:29.441Z,15.50
2019-05-21T14:08:04.530Z,15.20
2019-05-21T14:10:34.680Z,14.90
2019-05-21T14:13:07.850Z,14.80
2019-05-21T14:15:44.751Z,14.60
2019-05-21T14:18:14.840Z,14.50
2019-05-21T14:20:51.958Z,14.60
2019-05-21T14:23:37.309Z,14.60
2019-05-21T14:26:07.511Z,14.70
2019-05-21T14:28:37.582Z,14.70
2019-05-21T14:31:07.677Z,14.70
2019-05-21T14:33:39.862Z,14.70
2019-05-21T14:36:11.938Z,14.50
2019-05-21T14:38:46.047Z,14.60
2019-05-21T14:41:16.141Z,14.60
2019-05-21T14:43:55.484Z,14.70
2019-05-21T14:46:36.554Z,14.80
2019-05-21T14:49:08.637Z,14.90
2019-05-21T14:51:40.706Z,15.10
2019-05-21T14:54:25.354Z,15.00
2019-05-21T14:56:49.320Z,14.90
2019-05-21T14:59:20.353Z,14.70
2019-05-21T15:01:52.551Z,14.60
2019-05-21T15:04:22.983Z,14.60
2019-05-21T15:06:53.668Z,14.50
2019-05-21T15:09:23.771Z,14.40
2019-05-21T15:11:54.842Z,14.30
2019-05-21T15:14:25.052Z,14.20
2019-05-21T15:16:56.003Z,14.20
2019-05-21T15:19:26.129Z,14.20
2019-05-21T15:21:58.365Z,14.10
2019-05-21T15:24:28.476Z,13.90
2019-05-21T15:26:59.561Z,13.80
2019-05-21T15:29:29.700Z,13.70
2019-05-21T15:32:05.909Z,13.70
2019-05-21T15:34:44.213Z,13.70
2019-05-21T15:37:19.509Z,13.60
2019-05-21T15:39:49.619Z,13.50
2019-05-21T15:42:19.714Z,13.60
2019-05-21T15:44:49.803Z,13.60
2019-05-21T15:47:22.817Z,13.60
2019-05-21T15:49:53.898Z,13.60
2019-05-21T15:52:24.053Z,13.60
2019-05-21T15:55:06.829Z,13.70
2019-05-21T15:57:34.341Z,13.70
2019-05-21T16:00:15.916Z,13.70
2019-05-21T16:02:46.078Z,13.70
2019-05-21T16:05:23.022Z,13.70
2019-05-21T16:08:02.373Z,13.70
2019-05-21T16:10:32.467Z,13.60
2019-05-21T16:13:10.329Z,13.70
2019-05-21T16:15:40.420Z,13.80
2019-05-21T16:18:11.645Z,13.70
2019-05-21T16:20:42.797Z,13.70
2019-05-21T16:23:13.029Z,13.80
2019-05-21T16:25:43.139Z,13.60
2019-05-21T16:28:13.245Z,13.60
2019-05-21T16:30:43.429Z,13.60
2019-05-21T16:33:19.810Z,13.50
2019-05-21T16:35:57.145Z,13.40
2019-05-21T16:38:30.334Z,13.40
2019-05-21T16:41:00.508Z,13.40
2019-05-21T16:43:31.702Z,13.40
2019-05-21T16:46:01.813Z,13.30
2019-05-21T16:48:31.916Z,13.30
2019-05-21T16:51:09.758Z,13.20
2019-05-21T16:53:40.796Z,13.20
2019-05-21T16:56:12.918Z,13.10
2019-05-21T16:58:44.063Z,13.10
2019-05-21T17:01:15.896Z,13.10
2019-05-21T17:03:59.081Z,13.10
2019-05-21T17:06:22.036Z,13.10
2019-05-21T17:08:54.091Z,13.00
2019-05-21T17:11:26.141Z,13.00
2019-05-21T17:14:03.544Z,13.00
2019-05-21T17:16:35.595Z,13.00
2019-05-21T17:19:10.553Z,12.90
2019-05-21T17:21:40.649Z,12.90
2019-05-21T17:24:12.717Z,12.90
2019-05-21T17:26:43.769Z,12.80
2019-05-21T17:29:14.045Z,12.80
2019-05-21T17:31:46.132Z,12.90
2019-05-21T17:34:18.258Z,12.90
2019-05-21T17:36:48.348Z,12.90
2019-05-21T17:39:19.401Z,12.80
2019-05-21T17:41:50.522Z,12.80
2019-05-21T17:44:24.815Z,12.80
2019-05-21T17:46:53.471Z,12.80
2019-05-21T17:49:29.481Z,12.70
2019-05-21T17:52:00.651Z,12.70
2019-05-21T17:54:32.950Z,12.70
2019-05-21T17:57:11.371Z,12.70
2019-05-21T17:59:41.515Z,12.70
2019-05-21T18:02:13.977Z,12.60
2019-05-21T18:04:45.256Z,12.60
2019-05-21T18:07:17.121Z,12.60
2019-05-21T18:09:50.817Z,12.50
2019-05-21T18:12:31.743Z,12.50
2019-05-21T18:15:00.716Z,12.50
2019-05-21T18:17:33.010Z,12.50
2019-05-21T18:20:09.296Z,12.50
2019-05-21T18:22:41.885Z,12.50
2019-05-21T18:25:15.985Z,12.40
2019-05-21T18:27:51.421Z,12.40
2019-05-21T18:30:23.089Z,12.40
2019-05-21T18:32:54.121Z,12.40
2019-05-21T18:35:27.281Z,12.40
2019-05-21T18:37:57.446Z,12.30
2019-05-21T18:40:45.645Z,12.30
2019-05-21T18:43:16.709Z,12.30
2019-05-21T18:45:55.873Z,12.30
2019-05-21T18:48:26.029Z,12.30
2019-05-21T18:51:04.162Z,12.30
2019-05-21T18:53:45.317Z,12.30
2019-05-21T18:56:17.513Z,12.30
2019-05-21T18:58:48.685Z,12.30
2019-05-21T19:01:19.550Z,12.30
2019-05-21T19:03:50.817Z,12.30
2019-05-21T19:06:24.333Z,12.30
2019-05-21T19:08:54.581Z,12.30
2019-05-21T19:11:24.717Z,12.20
2019-05-21T19:13:55.797Z,12.20
2019-05-21T19:16:29.811Z,12.20
2019-05-21T19:18:58.681Z,12.20
2019-05-21T19:21:28.860Z,12.20
2019-05-21T19:23:59.029Z,12.20
2019-05-21T19:26:31.142Z,12.20
2019-05-21T19:29:01.243Z,12.20
2019-05-21T19:31:31.366Z,12.20
2019-05-21T19:34:02.404Z,12.20
2019-05-21T19:36:33.510Z,12.20
2019-05-21T19:39:06.327Z,12.20
2019-05-21T19:41:37.426Z,12.20
2019-05-21T19:44:07.591Z,12.20
2019-05-21T19:46:38.689Z,12.20
2019-05-21T19:49:08.777Z,12.20
2019-05-21T19:51:38.886Z,12.20
2019-05-21T19:54:09.001Z,12.20
2019-05-21T19:56:41.106Z,12.20
2019-05-21T19:59:11.286Z,12.10
2019-05-21T20:01:43.354Z,12.10
2019-05-21T20:04:13.927Z,12.10
2019-05-21T20:06:44.615Z,12.10
2019-05-21T20:09:20.364Z,12.10
2019-05-21T20:11:51.454Z,12.10
2019-05-21T20:14:21.622Z,12.10
2019-05-21T20:16:58.456Z,12.10
2019-05-21T20:19:30.697Z,12.10
2019-05-21T20:22:02.271Z,12.10
2019-05-21T20:24:32.550Z,12.10
2019-05-21T20:27:05.437Z,12.10
2019-05-21T20:29:35.729Z,12.10
2019-05-21T20:32:22.553Z,12.00
2019-05-21T20:34:57.282Z,12.00
2019-05-21T20:37:29.054Z,12.00
2019-05-21T20:39:59.884Z,12.00
2019-05-21T20:42:32.126Z,12.00
2019-05-21T20:45:11.265Z,12.00
2019-05-21T20:47:41.370Z,12.00
2019-05-21T20:50:15.078Z,11.90
2019-05-21T20:52:45.430Z,11.90
2019-05-21T20:55:18.170Z,11.90
2019-05-21T20:57:49.449Z,11.90
2019-05-21T21:00:25.311Z,11.90
2019-05-21T21:02:56.432Z,11.90
2019-05-21T21:05:28.654Z,11.90
2019-05-21T21:07:59.742Z,11.90
2019-05-21T21:10:33.386Z,11.90
2019-05-21T21:13:12.749Z,11.90
2019-05-21T21:15:43.798Z,11.90
2019-05-21T21:18:15.233Z,11.90
2019-05-21T21:20:45.578Z,11.90
2019-05-21T21:23:19.600Z,11.90
2019-05-21T21:26:06.686Z,11.80
2019-05-21T21:28:38.670Z,11.80
2019-05-21T21:31:11.789Z,11.80
2019-05-21T21:33:51.290Z,11.80
2019-05-21T21:36:22.026Z,11.80
2019-05-21T21:38:55.997Z,11.80
2019-05-21T21:41:30.783Z,11.70
2019-05-21T21:44:09.571Z,11.80
2019-05-21T21:46:41.686Z,11.70
2019-05-21T21:49:25.456Z,11.80
2019-05-21T21:51:57.139Z,11.80
2019-05-21T21:54:38.177Z,11.70
2019-05-21T21:57:27.594Z,11.80
2019-05-21T21:59:59.731Z,11.80
2019-05-21T22:02:54.998Z,11.80
2019-05-21T22:05:39.701Z,11.70
2019-05-21T22:16:03.137Z,11.70
